Blue Lake, Indiana
Current Conditions -  °F | °C
As of 10:15 AM on Monday 24 Nov 2014 (Local Time) from KGWB Reporting Station
Overcast Overcast  
Wind Chill: 55°   Ceiling: 2400
Heat Index: 55°   Visibility: 10mi
Dew Point: 50°   Wind: 16mph
Humidity: 82%   Direction: 210°SSW
Pressure: 29.15"   Gusts: 30mph
Location:  41.225°N, 85.325°W
Report Text: KGWB 241515Z AUTO 21014G26KT 10SM SCT016 BKN024 OVC040 13/10 A2915 RMK AO2
Loading
Personal Weather Stations






























Interactive Weather Map New forecast layout! Learn more

10-Day Weather Forecast

Advertisements
Track Severe Weather on mobile